sensor_id;sensor_type;location;lat;lon;timestamp;P1;durP1;ratioP1;P2;durP2;ratioP2
53618;SDS011;68717;53.040;18.488;2023-04-07T00:00:11;18.65;;;10.75;;
53618;SDS011;68717;53.040;18.488;2023-04-07T00:00:46;17.77;;;10.18;;
53618;SDS011;68717;53.040;18.488;2023-04-07T00:01:03;19.13;;;10.93;;
53618;SDS011;68717;53.040;18.488;2023-04-07T00:01:17;18.65;;;11.27;;
53618;SDS011;68717;53.040;18.488;2023-04-07T00:01:31;17.92;;;10.73;;
53618;SDS011;68717;53.040;18.488;2023-04-07T00:01:44;18.13;;;10.55;;
53618;SDS011;68717;53.040;18.488;2023-04-07T00:01:56;17.70;;;10.70;;
53618;SDS011;68717;53.040;18.488;2023-04-07T00:02:09;17.50;;;10.77;;
53618;SDS011;68717;53.040;18.488;2023-04-07T00:02:22;16.33;;;10.65;;
53618;SDS011;68717;53.040;18.488;2023-04-07T00:02:35;16.75;;;10.82;;
53618;SDS011;68717;53.040;18.488;2023-04-07T00:02:48;17.10;;;10.85;;
53618;SDS011;68717;53.040;18.488;2023-04-07T00:03:02;17.10;;;10.80;;
53618;SDS011;68717;53.040;18.488;2023-04-07T00:03:18;16.58;;;10.63;;
53618;SDS011;68717;53.040;18.488;2023-04-07T00:03:31;16.65;;;10.57;;
53618;SDS011;68717;53.040;18.488;2023-04-07T00:03:44;17.35;;;10.60;;
53618;SDS011;68717;53.040;18.488;2023-04-07T00:03:57;17.13;;;10.57;;
53618;SDS011;68717;53.040;18.488;2023-04-07T00:04:10;17.25;;;10.95;;
53618;SDS011;68717;53.040;18.488;2023-04-07T00:04:24;18.40;;;11.35;;
53618;SDS011;68717;53.040;18.488;2023-04-07T00:04:37;17.30;;;10.90;;
53618;SDS011;68717;53.040;18.488;2023-04-07T00:04:50;17.77;;;10.65;;
53618;SDS011;68717;53.040;18.488;2023-04-07T00:05:03;17.80;;;10.77;;
53618;SDS011;68717;53.040;18.488;2023-04-07T00:05:17;17.80;;;10.90;;
53618;SDS011;68717;53.040;18.488;2023-04-07T00:05:29;17.15;;;10.45;;
53618;SDS011;68717;53.040;18.488;2023-04-07T00:05:42;16.73;;;10.70;;
53618;SDS011;68717;53.040;18.488;2023-04-07T00:05:55;17.33;;;10.77;;
53618;SDS011;68717;53.040;18.488;2023-04-07T00:06:08;17.50;;;10.75;;
53618;SDS011;68717;53.040;18.488;2023-04-07T00:06:21;17.85;;;10.82;;
53618;SDS011;68717;53.040;18.488;2023-04-07T00:06:34;17.23;;;10.85;;
53618;SDS011;68717;53.040;18.488;2023-04-07T00:06:47;17.38;;;10.70;;
53618;SDS011;68717;53.040;18.488;2023-04-07T00:06:59;18.40;;;10.70;;
53618;SDS011;68717;53.040;18.488;2023-04-07T00:07:12;19.88;;;11.18;;
53618;SDS011;68717;53.040;18.488;2023-04-07T00:07:25;20.10;;;11.02;;
53618;SDS011;68717;53.040;18.488;2023-04-07T00:07:39;17.20;;;10.77;;
53618;SDS011;68717;53.040;18.488;2023-04-07T00:08:06;18.40;;;10.82;;
53618;SDS011;68717;53.040;18.488;2023-04-07T00:08:19;18.00;;;10.88;;
53618;SDS011;68717;53.040;18.488;2023-04-07T00:08:31;18.08;;;11.05;;
53618;SDS011;68717;53.040;18.488;2023-04-07T00:08:45;18.33;;;11.15;;
53618;SDS011;68717;53.040;18.488;2023-04-07T00:08:58;18.38;;;11.32;;
53618;SDS011;68717;53.040;18.488;2023-04-07T00:09:10;18.38;;;11.40;;
53618;SDS011;68717;53.040;18.488;2023-04-07T00:09:23;18.98;;;11.23;;
53618;SDS011;68717;53.040;18.488;2023-04-07T00:09:36;18.98;;;10.98;;
53618;SDS011;68717;53.040;18.488;2023-04-07T00:09:48;17.83;;;11.00;;
53618;SDS011;68717;53.040;18.488;2023-04-07T00:10:02;17.92;;;10.70;;
53618;SDS011;68717;53.040;18.488;2023-04-07T00:10:15;18.88;;;10.77;;
53618;SDS011;68717;53.040;18.488;2023-04-07T00:10:28;18.27;;;11.00;;
53618;SDS011;68717;53.040;18.488;2023-04-07T00:10:41;17.70;;;10.98;;
53618;SDS011;68717;53.040;18.488;2023-04-07T00:10:53;18.40;;;10.93;;
53618;SDS011;68717;53.040;18.488;2023-04-07T00:11:06;18.88;;;10.95;;
53618;SDS011;68717;53.040;18.488;2023-04-07T00:11:20;18.38;;;10.77;;
53618;SDS011;68717;53.040;18.488;2023-04-07T00:11:33;18.23;;;10.43;;
53618;SDS011;68717;53.040;18.488;2023-04-07T00:11:46;18.58;;;10.70;;
53618;SDS011;68717;53.040;18.488;2023-04-07T00:11:59;17.90;;;11.20;;
53618;SDS011;68717;53.040;18.488;2023-04-07T00:12:13;16.83;;;11.20;;
53618;SDS011;68717;53.040;18.488;2023-04-07T00:12:26;17.40;;;11.23;;
53618;SDS011;68717;53.040;18.488;2023-04-07T00:12:39;18.40;;;11.40;;
53618;SDS011;68717;53.040;18.488;2023-04-07T00:12:51;19.30;;;11.32;;
53618;SDS011;68717;53.040;18.488;2023-04-07T00:13:05;18.27;;;10.95;;
53618;SDS011;68717;53.040;18.488;2023-04-07T00:13:18;16.67;;;10.70;;
53618;SDS011;68717;53.040;18.488;2023-04-07T00:13:30;18.45;;;10.93;;
53618;SDS011;68717;53.040;18.488;2023-04-07T00:13:43;19.48;;;11.15;;
53618;SDS011;68717;53.040;18.488;2023-04-07T00:13:56;19.20;;;11.02;;
53618;SDS011;68717;53.040;18.488;2023-04-07T00:14:09;19.17;;;10.80;;
53618;SDS011;68717;53.040;18.488;2023-04-07T00:14:22;18.55;;;10.95;;
53618;SDS011;68717;53.040;18.488;2023-04-07T00:14:35;18.60;;;11.02;;
53618;SDS011;68717;53.040;18.488;2023-04-07T00:14:48;17.88;;;11.00;;
53618;SDS011;68717;53.040;18.488;2023-04-07T00:15:00;17.85;;;11.00;;
53618;SDS011;68717;53.040;18.488;2023-04-07T00:15:13;17.85;;;10.85;;
53618;SDS011;68717;53.040;18.488;2023-04-07T00:15:26;19.52;;;10.80;;
53618;SDS011;68717;53.040;18.488;2023-04-07T00:15:39;18.60;;;10.80;;
53618;SDS011;68717;53.040;18.488;2023-04-07T00:15:53;18.58;;;11.10;;
53618;SDS011;68717;53.040;18.488;2023-04-07T00:16:07;17.52;;;10.82;;
53618;SDS011;68717;53.040;18.488;2023-04-07T00:16:20;18.92;;;10.80;;
53618;SDS011;68717;53.040;18.488;2023-04-07T00:16:32;19.95;;;10.95;;
53618;SDS011;68717;53.040;18.488;2023-04-07T00:16:45;19.30;;;10.88;;
53618;SDS011;68717;53.040;18.488;2023-04-07T00:16:58;18.77;;;11.13;;
53618;SDS011;68717;53.040;18.488;2023-04-07T00:17:10;18.10;;;11.02;;
53618;SDS011;68717;53.040;18.488;2023-04-07T00:17:23;18.17;;;10.73;;
53618;SDS011;68717;53.040;18.488;2023-04-07T00:17:37;18.58;;;11.20;;
53618;SDS011;68717;53.040;18.488;2023-04-07T00:17:50;19.25;;;11.27;;
53618;SDS011;68717;53.040;18.488;2023-04-07T00:18:02;18.23;;;10.75;;
53618;SDS011;68717;53.040;18.488;2023-04-07T00:18:15;19.38;;;10.43;;
53618;SDS011;68717;53.040;18.488;2023-04-07T00:18:28;18.92;;;10.20;;
53618;SDS011;68717;53.040;18.488;2023-04-07T00:18:40;15.93;;;10.38;;
53618;SDS011;68717;53.040;18.488;2023-04-07T00:18:53;15.75;;;10.60;;
53618;SDS011;68717;53.040;18.488;2023-04-07T00:19:07;16.42;;;10.77;;
53618;SDS011;68717;53.040;18.488;2023-04-07T00:19:19;15.93;;;10.60;;
53618;SDS011;68717;53.040;18.488;2023-04-07T00:19:32;15.98;;;10.55;;
53618;SDS011;68717;53.040;18.488;2023-04-07T00:19:45;17.15;;;11.05;;
53618;SDS011;68717;53.040;18.488;2023-04-07T00:19:57;17.48;;;10.98;;
53618;SDS011;68717;53.040;18.488;2023-04-07T00:20:10;17.60;;;11.05;;
53618;SDS011;68717;53.040;18.488;2023-04-07T00:20:23;18.42;;;11.35;;
53618;SDS011;68717;53.040;18.488;2023-04-07T00:20:37;17.80;;;11.40;;
53618;SDS011;68717;53.040;18.488;2023-04-07T00:20:50;17.52;;;11.27;;
53618;SDS011;68717;53.040;18.488;2023-04-07T00:21:03;17.45;;;10.98;;
53618;SDS011;68717;53.040;18.488;2023-04-07T00:21:15;17.45;;;11.02;;
53618;SDS011;68717;53.040;18.488;2023-04-07T00:21:28;18.48;;;10.98;;
53618;SDS011;68717;53.040;18.488;2023-04-07T00:21:42;18.25;;;10.85;;
53618;SDS011;68717;53.040;18.488;2023-04-07T00:21:55;17.92;;;10.90;;
53618;SDS011;68717;53.040;18.488;2023-04-07T00:22:07;17.77;;;10.93;;
53618;SDS011;68717;53.040;18.488;2023-04-07T00:22:20;17.25;;;10.75;;
53618;SDS011;68717;53.040;18.488;2023-04-07T00:22:33;17.67;;;10.80;;
53618;SDS011;68717;53.040;18.488;2023-04-07T00:22:46;17.70;;;10.73;;
53618;SDS011;68717;53.040;18.488;2023-04-07T00:22:58;17.25;;;10.48;;
53618;SDS011;68717;53.040;18.488;2023-04-07T00:23:12;17.13;;;10.30;;
53618;SDS011;68717;53.040;18.488;2023-04-07T00:23:25;17.98;;;10.68;;
53618;SDS011;68717;53.040;18.488;2023-04-07T00:23:38;17.80;;;10.95;;
53618;SDS011;68717;53.040;18.488;2023-04-07T00:23:51;17.38;;;10.68;;
53618;SDS011;68717;53.040;18.488;2023-04-07T00:24:04;16.20;;;10.20;;
53618;SDS011;68717;53.040;18.488;2023-04-07T00:24:17;16.70;;;10.60;;
53618;SDS011;68717;53.040;18.488;2023-04-07T00:24:44;18.02;;;11.23;;
53618;SDS011;68717;53.040;18.488;2023-04-07T00:24:58;19.23;;;11.20;;
53618;SDS011;68717;53.040;18.488;2023-04-07T00:25:11;18.63;;;10.98;;
53618;SDS011;68717;53.040;18.488;2023-04-07T00:25:24;17.52;;;10.98;;
53618;SDS011;68717;53.040;18.488;2023-04-07T00:25:36;17.42;;;10.95;;
53618;SDS011;68717;53.040;18.488;2023-04-07T00:25:49;18.80;;;11.27;;
53618;SDS011;68717;53.040;18.488;2023-04-07T00:26:02;18.48;;;11.25;;
53618;SDS011;68717;53.040;18.488;2023-04-07T00:26:15;17.45;;;11.05;;
53618;SDS011;68717;53.040;18.488;2023-04-07T00:26:27;18.67;;;11.07;;
53618;SDS011;68717;53.040;18.488;2023-04-07T00:26:43;20.88;;;11.23;;
53618;SDS011;68717;53.040;18.488;2023-04-07T00:26:56;20.27;;;11.05;;
53618;SDS011;68717;53.040;18.488;2023-04-07T00:27:08;18.33;;;10.82;;
53618;SDS011;68717;53.040;18.488;2023-04-07T00:27:21;18.58;;;10.88;;
53618;SDS011;68717;53.040;18.488;2023-04-07T00:27:34;18.40;;;10.60;;
53618;SDS011;68717;53.040;18.488;2023-04-07T00:27:47;18.48;;;10.85;;
53618;SDS011;68717;53.040;18.488;2023-04-07T00:28:00;19.67;;;11.05;;
53618;SDS011;68717;53.040;18.488;2023-04-07T00:28:12;19.25;;;10.90;;
53618;SDS011;68717;53.040;18.488;2023-04-07T00:28:25;17.90;;;11.02;;
53618;SDS011;68717;53.040;18.488;2023-04-07T00:28:39;17.75;;;11.43;;
53618;SDS011;68717;53.040;18.488;2023-04-07T00:28:51;18.35;;;11.25;;
53618;SDS011;68717;53.040;18.488;2023-04-07T00:29:04;17.77;;;10.75;;
53618;SDS011;68717;53.040;18.488;2023-04-07T00:29:17;16.92;;;10.65;;
53618;SDS011;68717;53.040;18.488;2023-04-07T00:29:30;17.25;;;10.70;;
53618;SDS011;68717;53.040;18.488;2023-04-07T00:29:42;18.15;;;11.27;;
53618;SDS011;68717;53.040;18.488;2023-04-07T00:29:57;17.33;;;11.27;;
53618;SDS011;68717;53.040;18.488;2023-04-07T00:30:11;17.98;;;11.00;;
53618;SDS011;68717;53.040;18.488;2023-04-07T00:30:24;18.88;;;11.00;;
53618;SDS011;68717;53.040;18.488;2023-04-07T00:30:36;19.17;;;11.05;;
53618;SDS011;68717;53.040;18.488;2023-04-07T00:30:49;18.35;;;11.13;;
53618;SDS011;68717;53.040;18.488;2023-04-07T00:31:03;17.17;;;10.82;;
53618;SDS011;68717;53.040;18.488;2023-04-07T00:31:16;17.63;;;10.50;;
53618;SDS011;68717;53.040;18.488;2023-04-07T00:31:29;17.83;;;10.68;;
53618;SDS011;68717;53.040;18.488;2023-04-07T00:31:43;18.05;;;11.13;;
53618;SDS011;68717;53.040;18.488;2023-04-07T00:31:55;19.23;;;11.45;;
53618;SDS011;68717;53.040;18.488;2023-04-07T00:32:08;18.55;;;11.00;;
53618;SDS011;68717;53.040;18.488;2023-04-07T00:32:21;18.20;;;11.10;;
53618;SDS011;68717;53.040;18.488;2023-04-07T00:32:34;18.33;;;11.25;;
53618;SDS011;68717;53.040;18.488;2023-04-07T00:32:47;19.10;;;11.30;;
53618;SDS011;68717;53.040;18.488;2023-04-07T00:33:00;20.27;;;11.43;;
53618;SDS011;68717;53.040;18.488;2023-04-07T00:33:13;19.52;;;11.38;;
53618;SDS011;68717;53.040;18.488;2023-04-07T00:33:27;17.20;;;10.88;;
53618;SDS011;68717;53.040;18.488;2023-04-07T00:33:39;18.00;;;10.75;;
53618;SDS011;68717;53.040;18.488;2023-04-07T00:33:52;19.13;;;11.02;;
53618;SDS011;68717;53.040;18.488;2023-04-07T00:34:05;18.70;;;11.45;;
53618;SDS011;68717;53.040;18.488;2023-04-07T00:34:18;18.33;;;11.43;;
53618;SDS011;68717;53.040;18.488;2023-04-07T00:34:30;19.52;;;11.20;;
53618;SDS011;68717;53.040;18.488;2023-04-07T00:34:43;20.80;;;11.35;;
53618;SDS011;68717;53.040;18.488;2023-04-07T00:34:55;19.35;;;11.50;;
53618;SDS011;68717;53.040;18.488;2023-04-07T00:35:13;16.17;;;10.98;;
53618;SDS011;68717;53.040;18.488;2023-04-07T00:35:25;16.80;;;11.10;;
53618;SDS011;68717;53.040;18.488;2023-04-07T00:35:38;17.67;;;11.60;;
53618;SDS011;68717;53.040;18.488;2023-04-07T00:35:51;18.23;;;11.23;;
53618;SDS011;68717;53.040;18.488;2023-04-07T00:36:05;18.80;;;11.38;;
53618;SDS011;68717;53.040;18.488;2023-04-07T00:36:18;18.48;;;11.20;;
53618;SDS011;68717;53.040;18.488;2023-04-07T00:36:32;17.55;;;10.82;;
53618;SDS011;68717;53.040;18.488;2023-04-07T00:36:45;17.58;;;10.88;;
53618;SDS011;68717;53.040;18.488;2023-04-07T00:37:03;17.52;;;11.18;;
53618;SDS011;68717;53.040;18.488;2023-04-07T00:37:17;16.38;;;11.10;;
53618;SDS011;68717;53.040;18.488;2023-04-07T00:37:30;16.70;;;11.27;;
53618;SDS011;68717;53.040;18.488;2023-04-07T00:37:43;16.98;;;11.24;;
53618;SDS011;68717;53.040;18.488;2023-04-07T00:37:57;16.13;;;10.70;;
53618;SDS011;68717;53.040;18.488;2023-04-07T00:38:10;16.60;;;10.70;;
53618;SDS011;68717;53.040;18.488;2023-04-07T00:38:22;18.17;;;11.32;;
53618;SDS011;68717;53.040;18.488;2023-04-07T00:38:35;18.48;;;11.70;;
53618;SDS011;68717;53.040;18.488;2023-04-07T00:38:48;18.10;;;11.50;;
53618;SDS011;68717;53.040;18.488;2023-04-07T00:39:00;18.60;;;11.27;;
53618;SDS011;68717;53.040;18.488;2023-04-07T00:39:13;19.83;;;11.40;;
53618;SDS011;68717;53.040;18.488;2023-04-07T00:39:27;18.85;;;11.38;;
53618;SDS011;68717;53.040;18.488;2023-04-07T00:39:39;17.75;;;10.98;;
53618;SDS011;68717;53.040;18.488;2023-04-07T00:39:52;15.73;;;10.55;;
53618;SDS011;68717;53.040;18.488;2023-04-07T00:40:05;16.85;;;11.13;;
53618;SDS011;68717;53.040;18.488;2023-04-07T00:40:18;17.95;;;11.43;;
53618;SDS011;68717;53.040;18.488;2023-04-07T00:40:32;17.20;;;10.98;;
53618;SDS011;68717;53.040;18.488;2023-04-07T00:40:45;17.90;;;10.90;;
53618;SDS011;68717;53.040;18.488;2023-04-07T00:40:58;19.30;;;11.10;;
53618;SDS011;68717;53.040;18.488;2023-04-07T00:41:11;18.30;;;10.98;;
53618;SDS011;68717;53.040;18.488;2023-04-07T00:41:24;18.00;;;11.15;;
53618;SDS011;68717;53.040;18.488;2023-04-07T00:41:37;17.80;;;11.27;;
53618;SDS011;68717;53.040;18.488;2023-04-07T00:41:49;17.10;;;11.00;;
53618;SDS011;68717;53.040;18.488;2023-04-07T00:42:02;17.33;;;10.93;;
53618;SDS011;68717;53.040;18.488;2023-04-07T00:42:16;18.08;;;11.13;;
53618;SDS011;68717;53.040;18.488;2023-04-07T00:42:28;17.95;;;11.25;;
53618;SDS011;68717;53.040;18.488;2023-04-07T00:42:42;17.58;;;11.18;;
53618;SDS011;68717;53.040;18.488;2023-04-07T00:42:54;16.63;;;10.73;;
53618;SDS011;68717;53.040;18.488;2023-04-07T00:43:07;17.17;;;10.75;;
53618;SDS011;68717;53.040;18.488;2023-04-07T00:43:20;17.70;;;11.20;;
53618;SDS011;68717;53.040;18.488;2023-04-07T00:43:32;17.75;;;11.40;;
53618;SDS011;68717;53.040;18.488;2023-04-07T00:43:45;17.33;;;11.27;;
53618;SDS011;68717;53.040;18.488;2023-04-07T00:43:59;17.52;;;11.13;;
53618;SDS011;68717;53.040;18.488;2023-04-07T00:44:11;17.80;;;11.05;;
53618;SDS011;68717;53.040;18.488;2023-04-07T00:44:25;18.80;;;10.85;;
53618;SDS011;68717;53.040;18.488;2023-04-07T00:44:38;19.30;;;11.00;;
53618;SDS011;68717;53.040;18.488;2023-04-07T00:44:50;18.55;;;10.93;;
53618;SDS011;68717;53.040;18.488;2023-04-07T00:45:03;17.15;;;11.05;;
53618;SDS011;68717;53.040;18.488;2023-04-07T00:45:17;17.42;;;11.27;;
53618;SDS011;68717;53.040;18.488;2023-04-07T00:45:31;17.58;;;11.20;;
53618;SDS011;68717;53.040;18.488;2023-04-07T00:45:43;17.92;;;11.23;;
53618;SDS011;68717;53.040;18.488;2023-04-07T00:45:56;17.35;;;11.07;;
53618;SDS011;68717;53.040;18.488;2023-04-07T00:46:11;17.65;;;11.00;;
53618;SDS011;68717;53.040;18.488;2023-04-07T00:46:23;17.95;;;11.05;;
53618;SDS011;68717;53.040;18.488;2023-04-07T00:46:36;18.20;;;11.13;;
53618;SDS011;68717;53.040;18.488;2023-04-07T00:46:49;18.63;;;10.88;;
53618;SDS011;68717;53.040;18.488;2023-04-07T00:47:03;17.48;;;10.68;;
53618;SDS011;68717;53.040;18.488;2023-04-07T00:47:15;17.20;;;10.77;;
53618;SDS011;68717;53.040;18.488;2023-04-07T00:47:28;17.60;;;11.05;;
53618;SDS011;68717;53.040;18.488;2023-04-07T00:47:41;17.38;;;10.93;;
53618;SDS011;68717;53.040;18.488;2023-04-07T00:47:55;16.38;;;10.98;;
53618;SDS011;68717;53.040;18.488;2023-04-07T00:48:08;17.67;;;10.93;;
53618;SDS011;68717;53.040;18.488;2023-04-07T00:48:22;19.90;;;11.30;;
53618;SDS011;68717;53.040;18.488;2023-04-07T00:48:35;19.58;;;11.45;;
53618;SDS011;68717;53.040;18.488;2023-04-07T00:48:48;18.60;;;11.50;;
53618;SDS011;68717;53.040;18.488;2023-04-07T00:49:01;18.65;;;11.35;;
53618;SDS011;68717;53.040;18.488;2023-04-07T00:49:14;18.52;;;11.20;;
53618;SDS011;68717;53.040;18.488;2023-04-07T00:49:28;18.02;;;11.18;;
53618;SDS011;68717;53.040;18.488;2023-04-07T00:49:42;18.77;;;11.07;;
53618;SDS011;68717;53.040;18.488;2023-04-07T00:49:56;18.38;;;11.02;;
53618;SDS011;68717;53.040;18.488;2023-04-07T00:50:09;16.95;;;11.00;;
53618;SDS011;68717;53.040;18.488;2023-04-07T00:50:22;16.55;;;10.93;;
53618;SDS011;68717;53.040;18.488;2023-04-07T00:50:35;17.02;;;11.13;;
53618;SDS011;68717;53.040;18.488;2023-04-07T00:50:47;17.35;;;11.20;;
53618;SDS011;68717;53.040;18.488;2023-04-07T00:51:00;19.45;;;11.25;;
53618;SDS011;68717;53.040;18.488;2023-04-07T00:51:13;20.00;;;11.35;;
53618;SDS011;68717;53.040;18.488;2023-04-07T00:51:27;17.65;;;11.07;;
53618;SDS011;68717;53.040;18.488;2023-04-07T00:51:40;17.45;;;10.85;;
53618;SDS011;68717;53.040;18.488;2023-04-07T00:51:53;17.85;;;11.25;;
53618;SDS011;68717;53.040;18.488;2023-04-07T00:52:06;17.77;;;11.50;;
53618;SDS011;68717;53.040;18.488;2023-04-07T00:52:22;19.02;;;11.23;;
53618;SDS011;68717;53.040;18.488;2023-04-07T00:52:39;18.55;;;10.95;;
53618;SDS011;68717;53.040;18.488;2023-04-07T00:52:53;18.67;;;11.10;;
53618;SDS011;68717;53.040;18.488;2023-04-07T00:53:08;17.50;;;11.07;;
53618;SDS011;68717;53.040;18.488;2023-04-07T00:53:20;16.98;;;11.13;;
53618;SDS011;68717;53.040;18.488;2023-04-07T00:53:33;17.67;;;10.95;;
53618;SDS011;68717;53.040;18.488;2023-04-07T00:53:46;17.73;;;10.98;;
53618;SDS011;68717;53.040;18.488;2023-04-07T00:53:59;16.92;;;10.77;;
53618;SDS011;68717;53.040;18.488;2023-04-07T00:54:12;15.65;;;10.55;;
53618;SDS011;68717;53.040;18.488;2023-04-07T00:54:26;16.95;;;10.68;;
53618;SDS011;68717;53.040;18.488;2023-04-07T00:54:40;19.52;;;11.27;;
53618;SDS011;68717;53.040;18.488;2023-04-07T00:54:53;19.88;;;11.57;;
53618;SDS011;68717;53.040;18.488;2023-04-07T00:55:07;19.77;;;11.63;;
53618;SDS011;68717;53.040;18.488;2023-04-07T00:55:20;19.48;;;11.50;;
53618;SDS011;68717;53.040;18.488;2023-04-07T00:55:33;18.38;;;11.32;;
53618;SDS011;68717;53.040;18.488;2023-04-07T00:55:47;17.90;;;11.38;;
53618;SDS011;68717;53.040;18.488;2023-04-07T00:55:59;17.67;;;11.40;;
53618;SDS011;68717;53.040;18.488;2023-04-07T00:56:12;18.65;;;11.20;;
53618;SDS011;68717;53.040;18.488;2023-04-07T00:56:24;18.08;;;11.18;;
53618;SDS011;68717;53.040;18.488;2023-04-07T00:56:38;18.55;;;11.18;;
53618;SDS011;68717;53.040;18.488;2023-04-07T00:56:54;19.33;;;11.27;;
53618;SDS011;68717;53.040;18.488;2023-04-07T00:57:06;18.90;;;11.52;;
53618;SDS011;68717;53.040;18.488;2023-04-07T00:57:19;18.60;;;11.82;;
53618;SDS011;68717;53.040;18.488;2023-04-07T00:57:33;19.63;;;11.40;;
53618;SDS011;68717;53.040;18.488;2023-04-07T00:57:46;19.45;;;11.18;;
53618;SDS011;68717;53.040;18.488;2023-04-07T00:57:58;19.80;;;11.60;;
53618;SDS011;68717;53.040;18.488;2023-04-07T00:58:11;19.98;;;11.60;;
53618;SDS011;68717;53.040;18.488;2023-04-07T00:58:24;18.17;;;11.40;;
53618;SDS011;68717;53.040;18.488;2023-04-07T00:58:37;17.83;;;11.18;;
53618;SDS011;68717;53.040;18.488;2023-04-07T00:58:50;17.35;;;11.35;;
53618;SDS011;68717;53.040;18.488;2023-04-07T00:59:03;18.77;;;11.30;;
53618;SDS011;68717;53.040;18.488;2023-04-07T00:59:16;19.10;;;11.20;;
53618;SDS011;68717;53.040;18.488;2023-04-07T00:59:30;19.17;;;11.32;;
53618;SDS011;68717;53.040;18.488;2023-04-07T00:59:43;19.80;;;11.80;;
53618;SDS011;68717;53.040;18.488;2023-04-07T00:59:56;17.98;;;11.48;;
53618;SDS011;68717;53.040;18.488;2023-04-07T01:00:09;19.40;;;11.55;;
53618;SDS011;68717;53.040;18.488;2023-04-07T01:00:23;21.30;;;12.05;;
53618;SDS011;68717;53.040;18.488;2023-04-07T01:00:40;20.63;;;11.88;;
53618;SDS011;68717;53.040;18.488;2023-04-07T01:00:58;19.75;;;11.82;;
53618;SDS011;68717;53.040;18.488;2023-04-07T01:01:21;21.25;;;12.02;;
53618;SDS011;68717;53.040;18.488;2023-04-07T01:01:38;21.00;;;12.60;;
53618;SDS011;68717;53.040;18.488;2023-04-07T01:01:57;20.15;;;12.30;;
53618;SDS011;68717;53.040;18.488;2023-04-07T01:02:17;21.42;;;12.10;;
53618;SDS011;68717;53.040;18.488;2023-04-07T01:02:35;20.85;;;12.13;;
53618;SDS011;68717;53.040;18.488;2023-04-07T01:02:54;20.40;;;12.75;;
53618;SDS011;68717;53.040;18.488;2023-04-07T01:03:12;21.27;;;12.52;;
53618;SDS011;68717;53.040;18.488;2023-04-07T01:03:32;20.55;;;11.95;;
53618;SDS011;68717;53.040;18.488;2023-04-07T01:03:51;18.33;;;11.30;;
53618;SDS011;68717;53.040;18.488;2023-04-07T01:04:11;19.30;;;11.60;;
53618;SDS011;68717;53.040;18.488;2023-04-07T01:04:32;19.90;;;11.63;;
53618;SDS011;68717;53.040;18.488;2023-04-07T01:04:58;18.63;;;11.15;;
53618;SDS011;68717;53.040;18.488;2023-04-07T01:05:20;17.65;;;11.32;;
53618;SDS011;68717;53.040;18.488;2023-04-07T01:05:41;18.42;;;11.30;;
53618;SDS011;68717;53.040;18.488;2023-04-07T01:06:01;18.27;;;11.48;;
53618;SDS011;68717;53.040;18.488;2023-04-07T01:06:18;18.77;;;11.77;;
53618;SDS011;68717;53.040;18.488;2023-04-07T01:06:40;20.58;;;12.38;;
53618;SDS011;68717;53.040;18.488;2023-04-07T01:07:00;20.45;;;12.50;;
53618;SDS011;68717;53.040;18.488;2023-04-07T01:07:18;19.38;;;11.77;;
53618;SDS011;68717;53.040;18.488;2023-04-07T01:07:37;19.52;;;11.50;;
53618;SDS011;68717;53.040;18.488;2023-04-07T01:07:57;18.17;;;11.38;;
53618;SDS011;68717;53.040;18.488;2023-04-07T01:08:16;16.98;;;11.70;;
53618;SDS011;68717;53.040;18.488;2023-04-07T01:08:34;18.70;;;12.10;;
53618;SDS011;68717;53.040;18.488;2023-04-07T01:08:56;18.98;;;12.13;;
53618;SDS011;68717;53.040;18.488;2023-04-07T01:09:17;18.95;;;12.23;;
53618;SDS011;68717;53.040;18.488;2023-04-07T01:09:35;18.52;;;12.43;;
53618;SDS011;68717;53.040;18.488;2023-04-07T01:09:53;20.00;;;12.40;;
53618;SDS011;68717;53.040;18.488;2023-04-07T01:10:13;20.15;;;12.15;;
53618;SDS011;68717;53.040;18.488;2023-04-07T01:10:32;20.58;;;12.25;;
53618;SDS011;68717;53.040;18.488;2023-04-07T01:10:55;22.52;;;12.25;;
53618;SDS011;68717;53.040;18.488;2023-04-07T01:11:12;21.33;;;11.98;;
53618;SDS011;68717;53.040;18.488;2023-04-07T01:11:38;19.17;;;11.85;;
53618;SDS011;68717;53.040;18.488;2023-04-07T01:11:58;18.80;;;11.82;;
53618;SDS011;68717;53.040;18.488;2023-04-07T01:12:21;19.05;;;11.90;;
53618;SDS011;68717;53.040;18.488;2023-04-07T01:12:41;20.35;;;12.20;;
53618;SDS011;68717;53.040;18.488;2023-04-07T01:13:05;20.77;;;11.95;;
53618;SDS011;68717;53.040;18.488;2023-04-07T01:13:26;20.42;;;11.77;;
53618;SDS011;68717;53.040;18.488;2023-04-07T01:13:45;18.13;;;11.50;;
53618;SDS011;68717;53.040;18.488;2023-04-07T01:14:01;18.27;;;11.65;;
53618;SDS011;68717;53.040;18.488;2023-04-07T01:14:14;17.65;;;11.63;;
53618;SDS011;68717;53.040;18.488;2023-04-07T01:14:32;18.40;;;11.57;;
53618;SDS011;68717;53.040;18.488;2023-04-07T01:14:49;20.02;;;12.00;;
53618;SDS011;68717;53.040;18.488;2023-04-07T01:15:06;20.83;;;12.43;;
53618;SDS011;68717;53.040;18.488;2023-04-07T01:15:23;19.45;;;12.18;;
53618;SDS011;68717;53.040;18.488;2023-04-07T01:15:41;19.52;;;11.88;;
53618;SDS011;68717;53.040;18.488;2023-04-07T01:15:59;18.88;;;11.90;;
53618;SDS011;68717;53.040;18.488;2023-04-07T01:16:16;18.83;;;11.73;;
53618;SDS011;68717;53.040;18.488;2023-04-07T01:16:36;18.30;;;11.80;;
53618;SDS011;68717;53.040;18.488;2023-04-07T01:16:54;19.58;;;12.00;;
53618;SDS011;68717;53.040;18.488;2023-04-07T01:17:09;19.48;;;11.93;;
53618;SDS011;68717;53.040;18.488;2023-04-07T01:17:24;18.05;;;11.60;;
53618;SDS011;68717;53.040;18.488;2023-04-07T01:17:41;17.65;;;11.45;;
53618;SDS011;68717;53.040;18.488;2023-04-07T01:17:58;17.70;;;11.40;;
53618;SDS011;68717;53.040;18.488;2023-04-07T01:18:18;18.92;;;11.93;;
53618;SDS011;68717;53.040;18.488;2023-04-07T01:18:33;19.23;;;12.43;;
53618;SDS011;68717;53.040;18.488;2023-04-07T01:18:49;19.30;;;12.13;;
53618;SDS011;68717;53.040;18.488;2023-04-07T01:19:07;18.67;;;11.55;;
53618;SDS011;68717;53.040;18.488;2023-04-07T01:19:36;19.75;;;11.70;;
53618;SDS011;68717;53.040;18.488;2023-04-07T01:19:52;19.27;;;11.80;;
53618;SDS011;68717;53.040;18.488;2023-04-07T01:20:11;18.90;;;12.02;;
53618;SDS011;68717;53.040;18.488;2023-04-07T01:20:28;20.83;;;12.18;;
53618;SDS011;68717;53.040;18.488;2023-04-07T01:20:44;21.88;;;12.07;;
53618;SDS011;68717;53.040;18.488;2023-04-07T01:21:01;20.13;;;11.65;;
53618;SDS011;68717;53.040;18.488;2023-04-07T01:21:17;20.27;;;11.70;;
53618;SDS011;68717;53.040;18.488;2023-04-07T01:21:32;20.25;;;11.90;;
53618;SDS011;68717;53.040;18.488;2023-04-07T01:21:46;18.95;;;11.35;;
53618;SDS011;68717;53.040;18.488;2023-04-07T01:22:05;19.95;;;11.48;;
53618;SDS011;68717;53.040;18.488;2023-04-07T01:22:22;20.98;;;11.77;;
53618;SDS011;68717;53.040;18.488;2023-04-07T01:22:39;19.67;;;12.18;;
53618;SDS011;68717;53.040;18.488;2023-04-07T01:22:54;18.63;;;12.27;;
53618;SDS011;68717;53.040;18.488;2023-04-07T01:23:09;18.85;;;12.20;;
53618;SDS011;68717;53.040;18.488;2023-04-07T01:23:35;19.77;;;11.93;;